Time;durP1;ratioP1;P1;durP2;ratioP2;P2;SDS_P1;SDS_P2;PMS_P1;PMS_P2;Temp;Humidity;BMP_temperature;BMP_pressure;BME280_temperature;BME280_humidity;BME280_pressure;Samples;Min_cycle;Max_cycle;Signal;HPM_P1;HPM_P2
2022/10/26 00:00:47;;;;;;;26.20;12.85;;;15.40;99.90;;;;;;4925410;29;20512;-74
2022/10/26 00:03:13;;;;;;;24.67;14.15;;;16.00;99.90;;;;;;4925171;29;20414;-74
2022/10/26 00:05:39;;;;;;;22.90;13.95;;;15.60;99.90;;;;;;4923251;29;20036;-74
2022/10/26 00:08:05;;;;;;;23.73;13.13;;;15.90;99.90;;;;;;4927924;29;20047;-74
2022/10/26 00:10:33;;;;;;;22.63;12.50;;;15.40;99.90;;;;;;4930610;29;20052;-73
2022/10/26 00:12:59;;;;;;;33.28;15.95;;;15.60;99.90;;;;;;4928703;29;20039;-73
2022/10/26 00:15:25;;;;;;;23.30;14.20;;;16.00;99.90;;;;;;4946096;28;20051;-73
2022/10/26 00:17:50;;;;;;;23.05;12.57;;;15.90;99.90;;;;;;4949746;28;20414;-73
2022/10/26 00:20:16;;;;;;;24.27;13.50;;;15.40;99.90;;;;;;4915678;29;20043;-73
2022/10/26 00:22:42;;;;;;;26.40;11.98;;;15.70;99.90;;;;;;4947905;29;20051;-73
2022/10/26 00:25:08;;;;;;;19.30;11.77;;;15.90;99.90;;;;;;4948950;28;20043;-74
2022/10/26 00:27:33;;;;;;;19.10;12.52;;;15.80;99.90;;;;;;4943123;29;20054;-74
2022/10/26 00:30:00;;;;;;;17.88;11.02;;;15.70;99.90;;;;;;4931214;29;20055;-74
2022/10/26 00:32:26;;;;;;;17.27;11.18;;;15.40;99.90;;;;;;4947080;28;20125;-75
2022/10/26 00:34:52;;;;;;;24.45;11.48;;;15.80;99.90;;;;;;4928061;29;20047;-73
2022/10/26 00:37:18;;;;;;;17.75;10.82;;;15.90;99.90;;;;;;4947941;28;20393;-74
2022/10/26 00:39:43;;;;;;;16.13;11.18;;;15.20;99.90;;;;;;4930599;29;20031;-74
2022/10/26 00:42:17;;;;;;;25.00;11.68;;;15.80;99.90;;;;;;4923249;28;20441;-74
2022/10/26 00:44:46;;;;;;;21.95;11.63;;;15.10;99.90;;;;;;4926534;29;20052;-74
2022/10/26 00:47:20;;;;;;;18.83;10.32;;;15.70;99.90;;;;;;4932169;28;20130;-74
2022/10/26 00:49:48;;;;;;;21.00;11.25;;;15.50;99.90;;;;;;4947589;28;20031;-73
2022/10/26 00:52:16;;;;;;;20.30;10.77;;;15.10;99.90;;;;;;4947317;28;20515;-73
2022/10/26 00:54:43;;;;;;;16.70;11.13;;;15.00;99.90;;;;;;4946252;28;20047;-72
2022/10/26 00:57:12;;;;;;;22.92;12.15;;;15.50;99.90;;;;;;4950353;28;20043;-74
2022/10/26 00:59:38;;;;;;;18.00;10.10;;;15.30;99.90;;;;;;4949451;28;20051;-74
2022/10/26 01:02:04;;;;;;;22.25;11.20;;;14.90;99.90;;;;;;4940278;28;20062;-75
2022/10/26 01:04:29;;;;;;;18.27;9.90;;;15.10;99.90;;;;;;5097213;23;19999;-75
2022/10/26 01:06:55;;;;;;;17.17;10.57;;;15.20;99.90;;;;;;4933025;28;20502;-73
2022/10/26 01:09:22;;;;;;;17.58;10.07;;;15.30;99.90;;;;;;4937220;29;20055;-75
2022/10/26 01:11:48;;;;;;;13.57;10.40;;;14.90;99.90;;;;;;4954948;28;20082;-74
2022/10/26 01:14:17;;;;;;;19.23;11.48;;;15.30;99.90;;;;;;4945032;28;20082;-74
2022/10/26 01:17:03;;;;;;;12.30;8.90;;;15.00;99.90;;;;;;4966479;28;20161;-73
2022/10/26 01:19:51;;;;;;;24.65;11.18;;;15.20;99.90;;;;;;4963754;28;20467;-74
2022/10/26 01:22:32;;;;;;;18.40;10.88;;;14.80;99.90;;;;;;4946358;28;20062;-74
2022/10/26 01:25:29;;;;;;;20.15;10.70;;;14.90;99.90;;;;;;4942179;28;20099;-75
2022/10/26 01:27:55;;;;;;;17.60;10.57;;;15.10;99.90;;;;;;4960580;28;20062;-73
2022/10/26 01:30:42;;;;;;;18.00;9.05;;;15.10;99.90;;;;;;4964418;28;20039;-74
2022/10/26 01:33:14;;;;;;;29.92;10.80;;;15.10;99.90;;;;;;4958382;28;20571;-73
2022/10/26 01:36:10;;;;;;;20.02;9.48;;;15.10;99.90;;;;;;4940436;28;20050;-73
2022/10/26 01:38:58;;;;;;;15.18;9.93;;;14.60;99.90;;;;;;4939438;28;20045;-73
2022/10/26 01:41:34;;;;;;;22.88;11.20;;;15.00;99.90;;;;;;4944721;29;20086;-73
2022/10/26 01:44:07;;;;;;;16.65;9.40;;;15.00;99.90;;;;;;4939529;28;20050;-74
2022/10/26 01:46:38;;;;;;;15.95;10.30;;;14.70;99.90;;;;;;4951037;28;20038;-74
2022/10/26 01:49:09;;;;;;;18.98;11.05;;;15.00;99.90;;;;;;4958103;28;20054;-74
2022/10/26 01:51:36;;;;;;;18.83;8.88;;;14.80;99.90;;;;;;4936489;28;20050;-73
2022/10/26 01:54:02;;;;;;;16.98;10.75;;;14.60;99.90;;;;;;4946230;28;20051;-74
2022/10/26 01:56:31;;;;;;;18.50;11.80;;;14.90;99.90;;;;;;4932509;29;20211;-74
2022/10/26 01:59:30;;;;;;;12.23;9.60;;;14.80;99.90;;;;;;4946165;28;20042;-74
2022/10/26 02:02:17;;;;;;;16.85;10.82;;;14.50;99.90;;;;;;4940722;28;20049;-73
2022/10/26 02:05:12;;;;;;;14.43;10.32;;;14.80;99.90;;;;;;4933220;28;20063;-74
2022/10/26 02:08:05;;;;;;;19.35;11.25;;;14.50;99.90;;;;;;4963027;28;20054;-73
2022/10/26 02:10:34;;;;;;;20.15;12.30;;;14.60;99.90;;;;;;4952044;28;21049;-75
2022/10/26 02:13:19;;;;;;;18.15;12.52;;;14.40;99.90;;;;;;4942187;28;20130;-74
2022/10/26 02:15:53;;;;;;;16.80;12.63;;;14.50;99.90;;;;;;4960976;28;20236;-73
2022/10/26 02:18:32;;;;;;;21.58;14.10;;;14.50;99.90;;;;;;4965356;28;20050;-74
2022/10/26 02:21:13;;;;;;;19.92;13.98;;;14.60;99.90;;;;;;4952459;28;20051;-73
2022/10/26 02:23:41;;;;;;;28.45;18.20;;;14.80;99.90;;;;;;4959695;28;20101;-73
2022/10/26 02:26:10;;;;;;;24.15;17.80;;;14.70;99.90;;;;;;4920116;28;20058;-74
2022/10/26 02:28:41;;;;;;;24.20;17.10;;;14.80;99.90;;;;;;4956599;28;20119;-74
2022/10/26 02:31:07;;;;;;;28.40;18.70;;;14.70;99.90;;;;;;4945982;29;20078;-73
2022/10/26 02:33:38;;;;;;;32.30;16.75;;;14.50;99.90;;;;;;4963987;28;20101;-75
2022/10/26 02:36:08;;;;;;;28.65;18.60;;;14.60;99.90;;;;;;4937240;29;20062;-73
2022/10/26 02:38:36;;;;;;;30.40;20.15;;;14.70;99.90;;;;;;4948116;28;20046;-73
2022/10/26 02:41:03;;;;;;;26.35;18.02;;;14.60;99.90;;;;;;4937991;28;20039;-74
2022/10/26 02:43:31;;;;;;;25.05;18.77;;;14.60;99.90;;;;;;4939066;28;20360;-73
2022/10/26 02:46:04;;;;;;;25.70;17.10;;;14.70;99.90;;;;;;4937212;29;20031;-73
2022/10/26 02:48:30;;;;;;;24.75;18.52;;;14.40;99.90;;;;;;4957011;28;20059;-73
2022/10/26 02:50:59;;;;;;;21.98;17.02;;;14.70;99.90;;;;;;4948992;28;20454;-73
2022/10/26 02:53:33;;;;;;;26.05;16.52;;;14.30;99.90;;;;;;4953310;28;20046;-74
2022/10/26 02:56:06;;;;;;;27.80;18.30;;;14.60;99.90;;;;;;4945454;29;20757;-74
2022/10/26 02:58:39;;;;;;;24.50;16.77;;;14.20;99.90;;;;;;4951929;28;20056;-74
2022/10/26 03:01:05;;;;;;;35.03;18.85;;;14.50;99.90;;;;;;4943571;28;20046;-73
2022/10/26 03:03:31;;;;;;;25.65;18.33;;;14.20;99.90;;;;;;4945476;28;20042;-73
2022/10/26 03:05:56;;;;;;;27.23;18.85;;;14.00;99.90;;;;;;4949972;29;20506;-74
2022/10/26 03:08:22;;;;;;;21.92;16.63;;;14.20;99.90;;;;;;4935871;28;20038;-73
2022/10/26 03:10:48;;;;;;;25.77;17.38;;;14.50;99.90;;;;;;4952088;28;20453;-74
2022/10/26 03:13:14;;;;;;;25.00;16.27;;;14.30;99.90;;;;;;4935036;28;20086;-75
2022/10/26 03:15:40;;;;;;;24.73;16.50;;;14.40;99.90;;;;;;4958625;28;20126;-72
2022/10/26 03:18:06;;;;;;;23.67;16.73;;;14.00;99.90;;;;;;4946860;29;20055;-75
2022/10/26 03:20:31;;;;;;;23.98;16.88;;;14.20;99.90;;;;;;4950910;29;20042;-74
2022/10/26 03:22:57;;;;;;;25.95;15.70;;;14.30;99.90;;;;;;4931289;28;20047;-74
2022/10/26 03:25:24;;;;;;;26.58;16.50;;;14.00;99.90;;;;;;4939389;29;20054;-73
2022/10/26 03:28:00;;;;;;;23.30;17.52;;;14.20;99.90;;;;;;4951331;28;20114;-73
2022/10/26 03:30:27;;;;;;;21.77;15.07;;;14.10;99.90;;;;;;4920212;29;20083;-75
2022/10/26 03:32:52;;;;;;;17.27;14.15;;;14.00;99.90;;;;;;4950892;28;20042;-75
2022/10/26 03:35:18;;;;;;;22.67;16.42;;;13.90;99.90;;;;;;4945252;28;20042;-72
2022/10/26 03:37:44;;;;;;;28.30;16.27;;;14.20;99.90;;;;;;4932266;28;20119;-73
2022/10/26 03:40:10;;;;;;;22.58;16.38;;;14.00;99.90;;;;;;4910362;29;20135;-74
2022/10/26 03:42:36;;;;;;;19.83;15.98;;;13.90;99.90;;;;;;4946088;28;20512;-73
2022/10/26 03:45:03;;;;;;;19.58;16.38;;;14.00;99.90;;;;;;4958806;28;20057;-74
2022/10/26 03:47:28;;;;;;;22.25;16.63;;;14.20;99.90;;;;;;4950472;28;20039;-73
2022/10/26 03:49:54;;;;;;;23.50;15.52;;;14.20;99.90;;;;;;4961504;28;20522;-73
2022/10/26 03:52:20;;;;;;;27.20;15.27;;;14.00;99.90;;;;;;4939471;28;20048;-73
2022/10/26 03:54:45;;;;;;;22.35;16.52;;;14.00;99.90;;;;;;4947618;28;20043;-75
2022/10/26 03:57:11;;;;;;;21.45;16.45;;;13.80;99.90;;;;;;4954601;28;20051;-75
2022/10/26 03:59:36;;;;;;;23.67;15.00;;;14.20;99.90;;;;;;4929632;28;20102;-72
2022/10/26 04:02:02;;;;;;;35.67;16.98;;;14.00;99.90;;;;;;4939364;28;20093;-74
2022/10/26 04:04:28;;;;;;;32.20;15.82;;;13.80;99.90;;;;;;4937532;29;20402;-74
2022/10/26 04:06:53;;;;;;;28.85;16.80;;;14.20;99.90;;;;;;4945838;28;20475;-74
2022/10/26 04:09:19;;;;;;;29.48;15.85;;;13.80;99.90;;;;;;4961101;28;20042;-73
2022/10/26 04:11:45;;;;;;;22.23;15.70;;;14.20;99.90;;;;;;4964382;28;20046;-75
2022/10/26 04:14:10;;;;;;;23.85;16.38;;;14.00;99.90;;;;;;4954308;28;20071;-74
2022/10/26 04:16:36;;;;;;;25.58;16.00;;;14.10;99.90;;;;;;4943251;28;20035;-73
2022/10/26 04:19:02;;;;;;;22.65;15.68;;;14.20;99.90;;;;;;4942738;28;20741;-73
2022/10/26 04:21:27;;;;;;;27.05;18.00;;;14.30;99.90;;;;;;4951575;28;20046;-74
2022/10/26 04:23:53;;;;;;;25.30;16.52;;;14.30;99.90;;;;;;4963867;28;20046;-74
2022/10/26 04:26:19;;;;;;;25.00;15.55;;;14.00;99.90;;;;;;4962410;28;20063;-73
2022/10/26 04:28:44;;;;;;;23.77;15.57;;;14.20;99.90;;;;;;4945475;28;20055;-74
2022/10/26 04:31:10;;;;;;;23.25;17.25;;;14.30;99.90;;;;;;4928777;29;20039;-74
2022/10/26 04:33:35;;;;;;;23.48;16.30;;;14.00;99.90;;;;;;4929886;28;20044;-74
2022/10/26 04:36:01;;;;;;;21.17;16.60;;;14.10;99.90;;;;;;4938234;28;20079;-74
2022/10/26 04:38:27;;;;;;;23.73;16.27;;;14.00;99.90;;;;;;4931967;29;20035;-74
2022/10/26 04:40:52;;;;;;;24.83;16.77;;;14.30;99.90;;;;;;4948189;28;20071;-74
2022/10/26 04:43:18;;;;;;;26.02;18.27;;;14.00;99.90;;;;;;4952871;28;20094;-73
2022/10/26 04:45:43;;;;;;;23.90;17.77;;;14.30;99.90;;;;;;4951101;28;20446;-74
2022/10/26 04:48:10;;;;;;;28.50;17.13;;;14.40;99.90;;;;;;4942415;28;20038;-73
2022/10/26 04:50:37;;;;;;;20.50;16.08;;;14.10;99.90;;;;;;4949693;28;20075;-75
2022/10/26 04:53:07;;;;;;;27.77;16.90;;;14.40;99.90;;;;;;4913350;28;20059;-74
2022/10/26 04:55:33;;;;;;;37.92;19.08;;;14.50;99.90;;;;;;4956260;28;20046;-75
2022/10/26 04:57:59;;;;;;;28.02;16.17;;;14.50;99.90;;;;;;4964504;28;20134;-74
2022/10/26 05:00:25;;;;;;;29.63;18.70;;;14.50;99.90;;;;;;4959009;28;20132;-74
2022/10/26 05:02:51;;;;;;;21.77;15.98;;;14.60;99.90;;;;;;4959923;28;20109;-74
2022/10/26 05:05:17;;;;;;;20.65;17.63;;;14.60;99.90;;;;;;4934611;28;20055;-75
2022/10/26 05:07:42;;;;;;;42.05;18.17;;;14.70;99.90;;;;;;4953628;28;20057;-74
2022/10/26 05:10:09;;;;;;;22.80;15.70;;;14.50;99.90;;;;;;4949215;28;20422;-75
2022/10/26 05:12:34;;;;;;;22.88;15.80;;;14.60;99.90;;;;;;4968969;28;20038;-74
2022/10/26 05:15:00;;;;;;;20.73;15.65;;;14.80;99.90;;;;;;4954016;28;20102;-75
2022/10/26 05:17:26;;;;;;;27.17;17.52;;;14.40;99.90;;;;;;4951538;29;20043;-77
2022/10/26 05:19:54;;;;;;;22.02;16.13;;;14.40;99.90;;;;;;4955786;28;20126;-75
2022/10/26 05:22:23;;;;;;;24.52;15.85;;;14.50;99.90;;;;;;4965337;28;20035;-77
2022/10/26 05:24:49;;;;;;;18.70;15.80;;;14.60;99.90;;;;;;4941402;28;20082;-74
2022/10/26 05:27:15;;;;;;;24.73;17.25;;;14.80;99.90;;;;;;4950106;28;20071;-77
2022/10/26 05:29:40;;;;;;;25.05;15.93;;;14.70;99.90;;;;;;4948471;28;20047;-78
2022/10/26 05:32:06;;;;;;;26.30;16.48;;;14.50;99.90;;;;;;4943577;28;20135;-73
2022/10/26 05:34:32;;;;;;;21.08;15.90;;;14.50;99.90;;;;;;4942727;28;20078;-76
2022/10/26 05:36:57;;;;;;;26.15;16.13;;;14.70;99.90;;;;;;4943626;28;20094;-77
2022/10/26 05:39:23;;;;;;;19.00;15.32;;;14.70;99.90;;;;;;4928343;28;20406;-78
2022/10/26 05:41:48;;;;;;;23.20;17.05;;;14.80;99.90;;;;;;4961141;28;20127;-78
2022/10/26 05:44:14;;;;;;;23.45;16.48;;;14.50;99.90;;;;;;4944709;28;20047;-79
2022/10/26 05:46:39;;;;;;;25.00;17.23;;;14.70;99.90;;;;;;4937021;28;20040;-78
2022/10/26 05:49:05;;;;;;;24.90;18.17;;;14.60;99.90;;;;;;4950655;28;20093;-76
2022/10/26 05:51:36;;;;;;;24.55;15.57;;;14.60;99.90;;;;;;4958466;28;20043;-78
2022/10/26 05:54:02;;;;;;;27.55;18.45;;;14.70;99.90;;;;;;4938242;28;20043;-78
2022/10/26 05:56:39;;;;;;;18.70;15.63;;;14.80;99.90;;;;;;4929009;29;20051;-75
2022/10/26 05:59:11;;;;;;;21.30;16.55;;;14.60;99.90;;;;;;4951118;28;20043;-76
2022/10/26 06:01:43;;;;;;;27.65;17.27;;;14.80;99.90;;;;;;4925840;28;20047;-77
2022/10/26 06:04:14;;;;;;;19.08;14.73;;;14.90;99.90;;;;;;4968101;28;20050;-74
2022/10/26 06:06:45;;;;;;;21.20;16.05;;;14.90;99.90;;;;;;4934876;28;20126;-78
2022/10/26 06:09:12;;;;;;;29.35;16.73;;;14.70;99.90;;;;;;4969104;28;20352;-77
2022/10/26 06:11:38;;;;;;;18.58;15.45;;;14.70;99.90;;;;;;4930475;28;20043;-75
2022/10/26 06:14:04;;;;;;;24.63;15.57;;;14.80;99.90;;;;;;4964767;28;20082;-76
2022/10/26 06:17:02;;;;;;;25.10;15.10;;;15.00;99.90;;;;;;4970043;28;20070;-76
2022/10/26 06:19:56;;;;;;;22.13;14.23;;;15.00;99.90;;;;;;4982464;28;20050;-72
2022/10/26 06:22:53;;;;;;;18.92;13.75;;;15.00;99.90;;;;;;4932332;29;20403;-77
2022/10/26 06:25:52;;;;;;;25.50;15.07;;;15.10;99.90;;;;;;4922264;29;20386;-77
2022/10/26 06:28:28;;;;;;;18.20;14.25;;;15.10;99.90;;;;;;4944601;29;20058;-72
2022/10/26 06:30:54;;;;;;;25.90;16.48;;;14.90;99.90;;;;;;4932972;29;20031;-76
2022/10/26 06:33:20;;;;;;;24.88;16.05;;;14.80;99.90;;;;;;4947397;28;20351;-77
2022/10/26 06:36:06;;;;;;;17.25;14.55;;;15.10;99.90;;;;;;4952283;28;20070;-82
2022/10/26 06:38:34;;;;;;;19.67;13.63;;;15.10;99.90;;;;;;4948526;28;20555;-77
2022/10/26 06:41:01;;;;;;;21.10;14.73;;;14.80;99.90;;;;;;4963372;28;20509;-81
2022/10/26 06:43:30;;;;;;;19.30;13.65;;;15.10;99.90;;;;;;4935291;28;20192;-75
2022/10/26 06:46:15;;;;;;;18.63;14.32;;;14.80;99.90;;;;;;4958411;28;20046;-80
2022/10/26 06:48:54;;;;;;;17.88;14.90;;;15.00;99.90;;;;;;4926938;28;20102;-81
2022/10/26 06:51:20;;;;;;;18.52;12.73;;;14.80;99.90;;;;;;4966144;28;20118;-79
2022/10/26 06:53:56;;;;;;;15.68;12.70;;;15.00;99.90;;;;;;4948755;28;20222;-81
2022/10/26 06:56:23;;;;;;;18.05;13.65;;;15.10;99.90;;;;;;4944286;28;20157;-80
2022/10/26 06:58:51;;;;;;;18.02;12.98;;;14.90;99.90;;;;;;4946515;28;20051;-80
2022/10/26 07:01:17;;;;;;;19.92;13.10;;;14.90;99.90;;;;;;4952810;28;20046;-79
2022/10/26 07:03:43;;;;;;;19.35;13.85;;;14.80;99.90;;;;;;4936091;28;20043;-84
2022/10/26 07:06:08;;;;;;;21.30;14.00;;;15.00;99.90;;;;;;4932095;29;20164;-81
2022/10/26 07:08:34;;;;;;;19.80;13.18;;;15.20;99.90;;;;;;4919022;29;20099;-81
2022/10/26 07:11:00;;;;;;;19.08;11.68;;;14.90;99.90;;;;;;4934384;29;20479;-75
2022/10/26 07:13:26;;;;;;;59.75;15.23;;;15.00;99.90;;;;;;4922584;29;20040;-79
2022/10/26 07:15:51;;;;;;;17.65;12.68;;;15.20;99.90;;;;;;4925987;29;20459;-80
2022/10/26 07:18:17;;;;;;;18.05;12.88;;;15.20;99.90;;;;;;4933423;29;20059;-73
2022/10/26 07:20:42;;;;;;;20.63;12.57;;;15.10;99.90;;;;;;4931146;28;20044;-75
2022/10/26 07:23:12;;;;;;;16.67;11.00;;;15.30;99.90;;;;;;4924463;29;20090;-78
2022/10/26 07:25:39;;;;;;;15.93;10.73;;;15.40;99.90;;;;;;4950852;28;20119;-82
2022/10/26 07:28:09;;;;;;;14.15;10.43;;;15.30;99.90;;;;;;4935399;29;20458;-76
2022/10/26 07:30:36;;;;;;;21.42;10.48;;;15.50;99.90;;;;;;4923767;29;20103;-72
2022/10/26 07:33:08;;;;;;;13.38;9.88;;;15.30;99.90;;;;;;4919692;29;20456;-82
2022/10/26 07:35:34;;;;;;;13.90;9.25;;;15.40;99.90;;;;;;4906312;29;20443;-79
2022/10/26 07:37:59;;;;;;;21.27;11.13;;;15.40;99.90;;;;;;4918340;29;20076;-80
2022/10/26 07:40:26;;;;;;;12.60;9.38;;;15.40;99.90;;;;;;4915742;29;20050;-74
2022/10/26 07:42:52;;;;;;;25.63;9.55;;;15.60;99.90;;;;;;4936144;29;20052;-80
2022/10/26 07:45:18;;;;;;;14.02;9.73;;;15.50;99.90;;;;;;4946381;28;20090;-81
2022/10/26 07:47:45;;;;;;;13.02;9.50;;;15.40;99.90;;;;;;4921813;29;20054;-78
2022/10/26 07:50:11;;;;;;;12.30;9.23;;;15.40;99.90;;;;;;4960304;28;20052;-79
2022/10/26 07:52:37;;;;;;;11.55;8.82;;;15.60;99.90;;;;;;4957813;28;20044;-81
2022/10/26 07:55:04;;;;;;;11.18;8.75;;;15.40;99.90;;;;;;4928741;29;20384;-83
2022/10/26 07:57:30;;;;;;;15.05;8.50;;;15.40;99.90;;;;;;4929721;29;20164;-73
2022/10/26 07:59:55;;;;;;;8.85;7.68;;;15.40;99.90;;;;;;4922519;29;20442;-80
2022/10/26 08:02:22;;;;;;;15.57;8.30;;;15.40;99.90;;;;;;4933697;29;20047;-81
2022/10/26 08:04:48;;;;;;;14.32;9.98;;;15.40;99.90;;;;;;4932265;28;20059;-81
2022/10/26 08:07:14;;;;;;;18.00;9.05;;;15.30;99.90;;;;;;4932232;29;20048;-80
2022/10/26 08:09:40;;;;;;;10.07;7.63;;;15.40;99.90;;;;;;4937780;28;20039;-76
2022/10/26 08:12:05;;;;;;;15.48;8.18;;;15.60;99.90;;;;;;4949251;28;20048;-81
2022/10/26 08:14:31;;;;;;;14.98;7.57;;;15.40;99.90;;;;;;4937487;28;20047;-75
2022/10/26 08:16:57;;;;;;;6.78;5.65;;;15.50;99.90;;;;;;4953146;28;20038;-80
2022/10/26 08:19:22;;;;;;;9.32;7.65;;;15.50;99.90;;;;;;4945252;28;20050;-81
2022/10/26 08:21:48;;;;;;;13.57;7.55;;;15.70;99.90;;;;;;4933613;28;20036;-78
2022/10/26 08:24:13;;;;;;;11.63;7.97;;;15.60;99.90;;;;;;4932934;28;20127;-78
2022/10/26 08:26:40;;;;;;;11.15;7.63;;;15.40;99.90;;;;;;4953164;29;20095;-82
2022/10/26 08:29:06;;;;;;;14.88;8.40;;;15.60;99.90;;;;;;4922605;29;20055;-75
2022/10/26 08:31:32;;;;;;;9.43;6.22;;;15.50;99.90;;;;;;4949327;28;20051;-81
2022/10/26 08:33:58;;;;;;;11.85;6.43;;;15.30;99.90;;;;;;4950446;28;20035;-74
2022/10/26 08:36:26;;;;;;;13.82;7.50;;;15.40;99.90;;;;;;4935684;28;20130;-80
2022/10/26 08:38:51;;;;;;;9.63;6.88;;;15.30;99.90;;;;;;4961620;28;20039;-80
2022/10/26 08:41:23;;;;;;;14.43;6.22;;;15.30;99.90;;;;;;4964363;28;20131;-82
2022/10/26 08:43:57;;;;;;;9.77;5.90;;;15.40;99.90;;;;;;4965111;28;20043;-80
2022/10/26 08:46:49;;;;;;;10.10;5.90;;;15.20;99.90;;;;;;4946047;28;20078;-80
2022/10/26 08:49:31;;;;;;;12.27;5.80;;;15.50;99.90;;;;;;4953436;29;20058;-81
2022/10/26 08:52:00;;;;;;;10.50;5.28;;;15.60;99.90;;;;;;4951306;28;20050;-73
2022/10/26 08:54:39;;;;;;;12.30;6.43;;;15.50;99.90;;;;;;4955598;28;20035;-75
2022/10/26 08:57:17;;;;;;;9.65;5.10;;;15.40;99.90;;;;;;4961931;29;20039;-71
2022/10/26 08:59:52;;;;;;;6.45;5.10;;;15.50;99.90;;;;;;4972542;28;20194;-73
2022/10/26 09:02:19;;;;;;;14.52;5.75;;;15.50;99.90;;;;;;4968689;28;20119;-84
2022/10/26 09:04:45;;;;;;;9.90;4.63;;;15.50;99.90;;;;;;4965454;28;20042;-85
2022/10/26 09:07:40;;;;;;;10.05;3.78;;;15.40;99.90;;;;;;4938605;29;20051;-85
2022/10/26 09:10:26;;;;;;;6.80;4.55;;;15.30;99.90;;;;;;4940211;29;20050;-76
2022/10/26 09:13:23;;;;;;;8.68;5.13;;;15.40;99.90;;;;;;4964988;28;20059;-84
2022/10/26 09:16:06;;;;;;;12.75;4.57;;;15.40;99.90;;;;;;4934829;28;20043;-84
2022/10/26 09:18:40;;;;;;;9.73;5.40;;;15.30;99.90;;;;;;4935195;28;20047;-85
2022/10/26 09:21:22;;;;;;;14.32;5.38;;;15.10;99.90;;;;;;4944232;28;20042;-84
2022/10/26 09:24:13;;;;;;;14.20;5.32;;;15.20;99.90;;;;;;4960733;28;20043;-79
2022/10/26 09:26:55;;;;;;;6.03;4.80;;;14.80;99.90;;;;;;4945978;28;20054;-83
2022/10/26 09:29:38;;;;;;;12.27;5.50;;;14.40;99.90;;;;;;4952928;29;20122;-79
2022/10/26 09:32:11;;;;;;;8.80;5.55;;;14.40;99.90;;;;;;4961704;28;20136;-84
2022/10/26 09:34:47;;;;;;;12.60;7.50;;;14.30;99.90;;;;;;4937678;28;20042;-85
2022/10/26 09:37:23;;;;;;;6.10;4.78;;;14.50;99.90;;;;;;4935612;28;20066;-86
2022/10/26 09:39:55;;;;;;;8.68;4.60;;;14.40;99.90;;;;;;4961851;28;20039;-83
2022/10/26 09:42:28;;;;;;;7.63;4.03;;;14.60;99.90;;;;;;4962925;28;20058;-83
2022/10/26 09:45:04;;;;;;;7.70;5.13;;;14.60;99.90;;;;;;4954206;28;20105;-80
2022/10/26 09:47:43;;;;;;;12.93;5.50;;;14.70;99.90;;;;;;4965006;28;20046;-84
2022/10/26 09:50:31;;;;;;;7.45;5.03;;;14.70;99.90;;;;;;4972224;28;20146;-84
2022/10/26 09:52:57;;;;;;;13.75;5.47;;;14.60;99.90;;;;;;4948963;28;20066;-80
2022/10/26 09:55:23;;;;;;;10.05;5.03;;;14.60;99.90;;;;;;4924985;29;20126;-88
2022/10/26 09:57:52;;;;;;;8.18;4.95;;;14.70;99.90;;;;;;4934968;28;20047;-86
2022/10/26 10:00:21;;;;;;;12.55;5.70;;;14.70;99.90;;;;;;4953655;29;20129;-89
2022/10/26 10:02:52;;;;;;;13.50;5.05;;;14.70;99.90;;;;;;4950915;28;20479;-82
2022/10/26 10:05:28;;;;;;;11.27;4.40;;;14.70;99.90;;;;;;4951972;28;20051;-80
2022/10/26 10:08:20;;;;;;;5.95;3.72;;;14.90;99.90;;;;;;4950676;28;20102;-74
2022/10/26 10:10:57;;;;;;;12.20;4.25;;;14.90;99.90;;;;;;4950440;28;20051;-79
2022/10/26 10:13:24;;;;;;;5.05;3.67;;;15.00;99.90;;;;;;4949693;28;20047;-76
2022/10/26 10:15:53;;;;;;;7.30;5.13;;;15.00;99.90;;;;;;4957268;28;20047;-84
2022/10/26 10:18:22;;;;;;;11.48;5.30;;;15.10;99.90;;;;;;4965385;28;20050;-83
2022/10/26 10:20:54;;;;;;;7.63;3.78;;;15.10;99.90;;;;;;4962481;28;20052;-76
2022/10/26 10:23:34;;;;;;;8.60;4.07;;;15.20;99.90;;;;;;4940790;28;20394;-76
2022/10/26 10:26:00;;;;;;;;;;;15.30;99.90;;;;;;4936352;28;20044;-75
2022/10/26 10:28:27;;;;;;;10.30;4.50;;;15.30;99.90;;;;;;4939930;28;20005;-79
2022/10/26 10:31:00;;;;;;;7.18;3.28;;;15.50;99.90;;;;;;4951571;28;20077;-77
2022/10/26 10:33:35;;;;;;;10.27;3.03;;;15.40;99.90;;;;;;4942419;28;20055;-74
2022/10/26 10:36:02;;;;;;;5.45;3.63;;;15.60;99.90;;;;;;4958967;28;20055;-77
2022/10/26 10:38:28;;;;;;;6.93;3.08;;;15.70;99.90;;;;;;4963857;28;20046;-73
2022/10/26 10:40:58;;;;;;;8.07;2.80;;;15.70;99.90;;;;;;4933551;29;20051;-83
2022/10/26 10:43:25;;;;;;;6.60;3.47;;;15.60;99.90;;;;;;4934116;28;20102;-84
2022/10/26 10:45:53;;;;;;;7.13;3.78;;;15.70;99.90;;;;;;4950841;28;20039;-81
2022/10/26 10:48:21;;;;;;;4.72;3.53;;;15.70;99.90;;;;;;4951869;28;20073;-82
2022/10/26 10:51:03;;;;;;;8.38;2.88;;;15.70;99.90;;;;;;4954841;28;20629;-84
2022/10/26 10:53:40;;;;;;;7.20;4.30;;;15.60;99.90;;;;;;4945374;28;20039;-81
2022/10/26 10:56:17;;;;;;;6.97;3.03;;;15.70;99.90;;;;;;4924465;29;20438;-81
2022/10/26 10:58:58;;;;;;;8.02;2.92;;;15.70;99.90;;;;;;4942892;28;20047;-80
2022/10/26 11:01:35;;;;;;;7.20;2.38;;;15.80;99.90;;;;;;4959206;28;20118;-85
2022/10/26 11:04:19;;;;;;;8.93;2.92;;;15.80;99.90;;;;;;4963866;28;20050;-83
2022/10/26 11:06:47;;;;;;;7.18;3.50;;;15.90;99.90;;;;;;4940024;28;20150;-80
2022/10/26 11:09:17;;;;;;;8.30;3.58;;;16.00;99.90;;;;;;4948391;28;20117;-83
2022/10/26 11:11:49;;;;;;;5.93;2.55;;;16.00;99.90;;;;;;4946452;28;20082;-79
2022/10/26 11:14:22;;;;;;;5.28;2.15;;;16.00;99.90;;;;;;4951136;28;20051;-85
2022/10/26 11:17:01;;;;;;;4.18;2.50;;;16.00;99.90;;;;;;4921060;28;20051;-86
2022/10/26 11:19:42;;;;;;;8.77;3.38;;;16.10;99.90;;;;;;4929596;28;20131;-85
2022/10/26 11:22:14;;;;;;;5.53;2.13;;;16.10;99.90;;;;;;4929591;28;20040;-85
2022/10/26 11:24:58;;;;;;;9.45;3.10;;;16.20;99.90;;;;;;4964311;28;20083;-71
2022/10/26 11:27:38;;;;;;;6.75;3.05;;;16.30;99.90;;;;;;4930127;28;20536;-80
2022/10/26 11:30:12;;;;;;;5.40;2.42;;;16.30;99.90;;;;;;4930876;29;20082;-82
2022/10/26 11:32:46;;;;;;;6.25;3.00;;;16.40;99.90;;;;;;4922339;29;20514;-81
2022/10/26 11:35:40;;;;;;;5.18;2.00;;;16.40;99.90;;;;;;4935846;28;20121;-74
2022/10/26 11:38:13;;;;;;;7.20;2.85;;;16.50;99.90;;;;;;4946394;28;20418;-85
2022/10/26 11:41:00;;;;;;;3.88;2.45;;;16.50;99.90;;;;;;4921569;29;20069;-80
2022/10/26 11:44:06;;;;;;;9.60;2.72;;;16.60;99.90;;;;;;4943273;28;20043;-77
2022/10/26 11:46:43;;;;;;;6.35;2.55;;;16.70;99.90;;;;;;4914375;28;20359;-82
2022/10/26 11:49:12;;;;;;;6.43;2.67;;;16.70;99.90;;;;;;4916942;28;20597;-93
2022/10/26 11:51:49;;;;;;;7.22;3.80;;;16.70;99.90;;;;;;4948133;28;20490;-89
2022/10/26 11:54:36;;;;;;;6.72;2.47;;;16.80;99.90;;;;;;4946878;28;20052;-90
2022/10/26 11:57:03;;;;;;;10.00;2.92;;;16.80;99.90;;;;;;4932716;29;20503;-90
2022/10/26 11:59:34;;;;;;;11.13;2.72;;;17.00;99.90;;;;;;4944821;28;20451;-78
2022/10/26 12:02:19;;;;;;;10.52;3.40;;;17.10;99.90;;;;;;4936319;28;20095;-79
2022/10/26 12:04:59;;;;;;;7.35;2.83;;;17.20;99.90;;;;;;4941935;29;20047;-86
2022/10/26 12:07:30;;;;;;;8.90;3.42;;;17.10;99.90;;;;;;4941146;28;20077;-85
2022/10/26 12:09:58;;;;;;;4.80;3.13;;;17.20;99.90;;;;;;4944202;29;20063;-80
2022/10/26 12:12:46;;;;;;;9.38;3.42;;;17.30;99.90;;;;;;4942450;28;20047;-85
2022/10/26 12:15:24;;;;;;;12.10;4.45;;;17.50;99.90;;;;;;4954465;28;20042;-84
2022/10/26 12:17:51;;;;;;;9.43;3.28;;;17.30;99.90;;;;;;4953674;28;20063;-72
2022/10/26 12:20:29;;;;;;;6.15;4.00;;;17.10;99.90;;;;;;4948600;29;20043;-79
2022/10/26 12:22:55;;;;;;;15.63;4.90;;;17.00;99.90;;;;;;4961282;28;20066;-89
2022/10/26 12:25:21;;;;;;;14.77;4.32;;;16.90;99.90;;;;;;4959795;28;20045;-77
2022/10/26 12:27:47;;;;;;;10.50;4.65;;;16.90;99.90;;;;;;4936227;29;20031;-85
2022/10/26 12:30:26;;;;;;;8.65;3.78;;;16.90;99.90;;;;;;4979821;28;20079;-78
2022/10/26 12:32:57;;;;;;;9.65;3.97;;;16.90;99.90;;;;;;4933944;29;20052;-82
2022/10/26 12:35:36;;;;;;;8.10;3.92;;;16.90;99.90;;;;;;4945372;28;20058;-91
2022/10/26 12:38:22;;;;;;;8.50;3.70;;;17.10;99.90;;;;;;4965301;28;20074;-91
2022/10/26 12:41:06;;;;;;;10.05;4.35;;;17.00;99.90;;;;;;4955831;28;20047;-93
2022/10/26 12:43:36;;;;;;;9.80;4.38;;;17.20;99.90;;;;;;4958027;28;20122;-75
2022/10/26 12:46:25;;;;;;;10.50;5.05;;;17.20;99.90;;;;;;4952092;28;20059;-90
2022/10/26 12:48:52;;;;;;;9.88;4.88;;;17.20;99.90;;;;;;4946425;28;20062;-74
2022/10/26 12:51:38;;;;;;;9.35;5.60;;;17.10;99.90;;;;;;4952351;28;20040;-87
2022/10/26 12:54:06;;;;;;;14.05;5.32;;;17.10;99.90;;;;;;4947047;28;20194;-90